»·PEaware :: AAL1325 TXKF-KMIA

AAL1325 :: TXKF-KMIA

FLIGHT INFORMATION

Flight Status: Arrived
Operator:
American Airlines
More flights by this operator :: More flights under this callsign
Pilot: Anonymous 14085 (14085)
Aircraft: BOEING 737-800
(B738)
More flights by this aircraft type
Origin: TXKF Bermuda Intl
Bermuda
Destination: KMIA Miami Intl
United States
More flights between these airports :: More routes between these airports
Route: BALTN M329 ZQA FLIPR5
File this flight plan on PilotEdge
Remarks: PBN / A1B1C1D1S1S2 DOF / 180106 REG / N806SB EET / KZMA0151 OPR / AAL PER / C RMK / TCAS SIMBRIEF
Altitude:
(Current/Filed)
36,000ft
Speed:
(Current/Filed)
463kts
Departed: 06-Jan-18 03:14 PM
Arrived: 06-Jan-18 06:14 PM
Distance/Time
Traveled:
907nm/2:59
Distance/Time
To Go:
Arrived

Flight Plot

Page will automatically refresh every two minutes.

Flight plan parsing failed; only flown route is shown


Map Options




Map Legend


Flown Route
Filed Route
Departure Airport
Arrival Airport
Navaid (VOR, NDB)
Fix

Horizontal Profiles

Position Reports

Time Latitude Longitude Heading Altitude Ground
Speed
06-Jan-18 15:11 32.360031 -64.703087 153 19ft 0kts
06-Jan-18 15:12 32.360031 -64.703087 153 19ft 0kts
06-Jan-18 15:13 32.360031 -64.703087 153 19ft 0kts
06-Jan-18 15:14 32.360031 -64.703087 153 19ft 0kts
06-Jan-18 15:15 32.360031 -64.703087 153 19ft 0kts
06-Jan-18 15:16 32.360364 -64.703287 153 19ft 2kts
06-Jan-18 15:17 32.360463 -64.703346 153 19ft 0kts
06-Jan-18 15:18 32.362418 -64.702231 56 19ft 16kts
06-Jan-18 15:19 32.364717 -64.695793 67 19ft 27kts
06-Jan-18 15:20 32.363905 -64.677876 101 20ft 139kts
06-Jan-18 15:21 32.341269 -64.627788 168 1406ft 207kts
06-Jan-18 15:22 32.295798 -64.668665 266 3504ft 248kts
06-Jan-18 15:23 32.306336 -64.750031 271 6768ft 260kts
06-Jan-18 15:24 32.285343 -64.829202 243 10686ft 243kts
06-Jan-18 15:25 32.247031 -64.902848 238 13257ft 271kts
06-Jan-18 15:26 32.205318 -64.976729 237 16364ft 273kts
06-Jan-18 15:27 32.162726 -65.051405 236 19209ft 277kts
06-Jan-18 15:28 32.119495 -65.127174 235 21786ft 283kts
06-Jan-18 15:29 32.075141 -65.204970 235 24147ft 290kts
06-Jan-18 15:30 32.029735 -65.284674 236 26234ft 298kts
06-Jan-18 15:31 31.984277 -65.364565 236 28611ft 290kts
06-Jan-18 15:32 31.940269 -65.441988 237 30647ft 282kts
06-Jan-18 15:33 31.897568 -65.517220 237 32402ft 274kts
06-Jan-18 15:34 31.855925 -65.590657 237 33972ft 267kts
06-Jan-18 15:35 31.815225 -65.662454 237 35259ft 263kts
06-Jan-18 15:36 31.774925 -65.733360 237 36267ft 265kts
06-Jan-18 15:37 31.732412 -65.808530 237 36284ft 289kts
06-Jan-18 15:38 31.685958 -65.890775 237 36280ft 314kts
06-Jan-18 15:39 31.636247 -65.978692 237 36267ft 328kts
06-Jan-18 15:40 31.584945 -66.066844 236 36264ft 328kts
06-Jan-18 15:41 31.533218 -66.155067 236 36261ft 328kts
06-Jan-18 15:42 31.481589 -66.243137 236 36258ft 329kts
06-Jan-18 15:43 31.429918 -66.331375 237 36256ft 329kts
06-Jan-18 15:44 31.378392 -66.419468 237 36253ft 329kts
06-Jan-18 15:45 31.326730 -66.507901 237 36250ft 330kts
06-Jan-18 15:46 31.274979 -66.596585 237 36247ft 330kts
06-Jan-18 15:47 31.223309 -66.685097 237 36267ft 331kts
06-Jan-18 15:48 31.171651 -66.773665 237 36265ft 331kts
06-Jan-18 15:49 31.119959 -66.862556 237 36262ft 331kts
06-Jan-18 15:50 31.068155 -66.951765 237 36259ft 332kts
06-Jan-18 15:51 31.016601 -67.040654 237 36256ft 332kts
06-Jan-18 15:52 30.964845 -67.129998 237 36254ft 333kts
06-Jan-18 15:53 30.913262 -67.219150 237 36251ft 333kts
06-Jan-18 15:54 30.862242 -67.307434 237 36263ft 333kts
06-Jan-18 15:55 30.810530 -67.397020 237 36260ft 334kts
06-Jan-18 15:56 30.758863 -67.486641 237 36257ft 334kts
06-Jan-18 15:57 30.707122 -67.576503 238 36263ft 342kts
06-Jan-18 15:58 30.654473 -67.672102 238 36277ft 358kts
06-Jan-18 15:59 30.600605 -67.769007 238 36271ft 357kts
06-Jan-18 16:00 30.546659 -67.865562 238 36268ft 357kts
06-Jan-18 16:01 30.492619 -67.962352 238 36265ft 358kts
06-Jan-18 16:02 30.438797 -68.058880 238 36262ft 358kts
06-Jan-18 16:03 30.384778 -68.155905 238 35644ft 360kts
06-Jan-18 16:04 30.330325 -68.253849 238 34614ft 364kts
06-Jan-18 16:05 30.275766 -68.352135 238 34256ft 366kts
06-Jan-18 16:06 30.220824 -68.451239 239 34251ft 366kts
06-Jan-18 16:07 30.165904 -68.550442 239 34248ft 367kts
06-Jan-18 16:08 30.111038 -68.649689 239 34245ft 367kts
06-Jan-18 16:09 30.056688 -68.747873 238 34264ft 367kts
06-Jan-18 16:10 30.001827 -68.847350 238 34262ft 368kts
06-Jan-18 16:11 29.946986 -68.946975 238 34259ft 368kts
06-Jan-18 16:12 29.892346 -69.046381 239 34265ft 368kts
06-Jan-18 16:13 29.837642 -69.146045 239 34265ft 368kts
06-Jan-18 16:14 29.782995 -69.245748 239 34263ft 369kts
06-Jan-18 16:15 29.729168 -69.344189 236 34249ft 350kts
06-Jan-18 16:16 29.677265 -69.439035 237 34258ft 353kts
06-Jan-18 16:17 29.625216 -69.534389 237 34255ft 353kts
06-Jan-18 16:18 29.573154 -69.629908 237 34252ft 353kts
06-Jan-18 16:19 29.521010 -69.725433 236 34271ft 353kts
06-Jan-18 16:20 29.469207 -69.820659 236 34268ft 353kts
06-Jan-18 16:21 29.417320 -69.916235 237 34265ft 353kts
06-Jan-18 16:22 29.365511 -70.011807 237 34262ft 353kts
06-Jan-18 16:23 29.313779 -70.107366 237 34259ft 353kts
06-Jan-18 16:24 29.262191 -70.202785 237 34255ft 353kts
06-Jan-18 16:25 29.210474 -70.298573 237 34252ft 354kts
06-Jan-18 16:26 29.159000 -70.394038 237 34249ft 354kts
06-Jan-18 16:27 29.107471 -70.489735 237 34246ft 354kts
06-Jan-18 16:28 29.056051 -70.585360 237 34243ft 354kts
06-Jan-18 16:29 29.004438 -70.681329 236 34263ft 354kts
06-Jan-18 16:30 28.953071 -70.776908 237 34259ft 354kts
06-Jan-18 16:31 28.901613 -70.872958 237 34256ft 354kts
06-Jan-18 16:32 28.850349 -70.968795 237 34272ft 354kts
06-Jan-18 16:33 28.797682 -71.063695 236 34269ft 354kts
06-Jan-18 16:34 28.744784 -71.158393 236 34266ft 355kts
06-Jan-18 16:35 28.692040 -71.252877 236 34263ft 355kts
06-Jan-18 16:36 28.639165 -71.347710 236 34259ft 355kts
06-Jan-18 16:37 28.586415 -71.442437 236 34282ft 355kts
06-Jan-18 16:38 28.533708 -71.537206 236 34280ft 355kts
06-Jan-18 16:39 28.481017 -71.632068 236 34277ft 356kts
06-Jan-18 16:40 28.428260 -71.726908 236 34296ft 356kts
06-Jan-18 16:41 28.375521 -71.822024 236 34293ft 356kts
06-Jan-18 16:42 28.323113 -71.916723 236 34290ft 356kts
06-Jan-18 16:43 28.268086 -72.010130 235 34287ft 356kts
06-Jan-18 16:44 28.210976 -72.105099 236 34295ft 379kts
06-Jan-18 16:45 28.150849 -72.205071 236 34283ft 385kts
06-Jan-18 16:46 28.091803 -72.303227 236 34290ft 378kts
06-Jan-18 16:47 28.031836 -72.403119 236 34278ft 384kts
06-Jan-18 16:48 27.972141 -72.502646 236 34276ft 384kts
06-Jan-18 16:49 27.912178 -72.602743 236 34273ft 384kts
06-Jan-18 16:50 27.852475 -72.702398 236 34300ft 384kts
06-Jan-18 16:51 27.792978 -72.801879 236 34299ft 383kts
06-Jan-18 16:52 27.734560 -72.899725 236 34306ft 382kts
06-Jan-18 16:53 27.675155 -72.999416 236 34293ft 383kts
06-Jan-18 16:54 27.615807 -73.099113 236 34291ft 382kts
06-Jan-18 16:55 27.556723 -73.198487 236 34288ft 382kts
06-Jan-18 16:56 27.497837 -73.297650 236 34286ft 382kts
06-Jan-18 16:57 27.438842 -73.397124 236 34283ft 382kts
06-Jan-18 16:58 27.381022 -73.494709 236 34289ft 381kts
06-Jan-18 16:59 27.322257 -73.594052 236 34278ft 381kts
06-Jan-18 17:00 27.263729 -73.692981 236 34293ft 381kts
06-Jan-18 17:01 27.205102 -73.792207 236 34291ft 381kts
06-Jan-18 17:02 27.156468 -73.874688 236 34289ft 380kts
06-Jan-18 17:03 27.088588 -73.989971 236 34286ft 380kts
06-Jan-18 17:04 27.040744 -74.071301 236 34292ft 377kts
06-Jan-18 17:05 26.973017 -74.186605 236 34281ft 380kts
06-Jan-18 17:06 26.924717 -74.268927 236 34279ft 380kts
06-Jan-18 17:07 26.867493 -74.368297 237 34289ft 380kts
06-Jan-18 17:08 26.801060 -74.484086 237 34286ft 380kts
06-Jan-18 17:09 26.753627 -74.566771 237 34284ft 380kts
06-Jan-18 17:10 26.697051 -74.665468 237 34298ft 380kts
06-Jan-18 17:11 26.640170 -74.764655 237 34298ft 380kts
06-Jan-18 17:12 26.583068 -74.863535 237 34295ft 380kts
06-Jan-18 17:13 26.516214 -74.978831 237 34292ft 380kts
06-Jan-18 17:14 26.468356 -75.061424 237 34290ft 380kts
06-Jan-18 17:15 26.411142 -75.160268 237 34287ft 380kts
06-Jan-18 17:16 26.354158 -75.258831 237 34285ft 380kts
06-Jan-18 17:17 26.296911 -75.357967 237 34282ft 380kts
06-Jan-18 17:18 26.239971 -75.456691 237 34279ft 380kts
06-Jan-18 17:19 26.182516 -75.554957 237 34277ft 380kts
06-Jan-18 17:20 26.124828 -75.653401 236 34276ft 380kts
06-Jan-18 17:21 26.073393 -75.741057 236 34290ft 380kts
06-Jan-18 17:22 26.016069 -75.839034 236 34288ft 380kts
06-Jan-18 17:23 25.960242 -75.938487 237 34285ft 380kts
06-Jan-18 17:24 25.904663 -76.038076 237 34283ft 380kts
06-Jan-18 17:25 25.849323 -76.137234 238 34293ft 380kts
06-Jan-18 17:26 25.793833 -76.236767 238 34291ft 380kts
06-Jan-18 17:27 25.735291 -76.333954 235 34288ft 380kts
06-Jan-18 17:28 25.674498 -76.429738 235 34286ft 380kts
06-Jan-18 17:29 25.614022 -76.525347 235 34283ft 380kts
06-Jan-18 17:30 25.553547 -76.621078 235 34280ft 380kts
06-Jan-18 17:31 25.493161 -76.716173 235 34297ft 380kts
06-Jan-18 17:32 25.432308 -76.811868 235 34294ft 380kts
06-Jan-18 17:33 25.371484 -76.906873 235 34291ft 380kts
06-Jan-18 17:34 25.310704 -77.002085 235 34289ft 380kts
06-Jan-18 17:35 25.251354 -77.094970 234 34286ft 371kts
06-Jan-18 17:36 25.191606 -77.188251 234 34282ft 372kts
06-Jan-18 17:37 25.132011 -77.281126 234 34280ft 372kts
06-Jan-18 17:38 25.072377 -77.373850 234 34277ft 371kts
06-Jan-18 17:39 25.024440 -77.473520 258 34279ft 384kts
06-Jan-18 17:40 25.018644 -77.591560 260 34272ft 386kts
06-Jan-18 17:41 25.012908 -77.709725 259 34288ft 386kts
06-Jan-18 17:42 25.007224 -77.827827 259 34286ft 386kts
06-Jan-18 17:43 25.001668 -77.945620 259 34284ft 386kts
06-Jan-18 17:44 24.996218 -78.063637 259 34281ft 386kts
06-Jan-18 17:45 24.990847 -78.181772 259 34279ft 386kts
06-Jan-18 17:46 24.984924 -78.299314 259 34277ft 386kts
06-Jan-18 17:47 24.978972 -78.417179 259 34274ft 386kts
06-Jan-18 17:48 24.972953 -78.533916 258 34243ft 360kts
06-Jan-18 17:49 24.967330 -78.640272 258 33220ft 354kts
06-Jan-18 17:50 24.963142 -78.714551 258 32023ft 370kts
06-Jan-18 17:51 24.957029 -78.823962 259 30387ft 389kts
06-Jan-18 17:52 24.950679 -78.940403 259 30183ft 372kts
06-Jan-18 17:53 24.944658 -79.051420 259 30095ft 355kts
06-Jan-18 17:54 24.939109 -79.157787 261 29990ft 343kts
06-Jan-18 17:55 24.988927 -79.253762 300 29908ft 384kts
06-Jan-18 17:56 25.060078 -79.337210 299 29277ft 364kts
06-Jan-18 17:57 25.129486 -79.419229 302 26709ft 369kts
06-Jan-18 17:58 25.199207 -79.501404 304 24416ft 363kts
06-Jan-18 17:59 25.267139 -79.581420 305 22319ft 355kts
06-Jan-18 18:00 25.333351 -79.659391 305 20308ft 346kts
06-Jan-18 18:01 25.397700 -79.735731 301 18407ft 336kts
06-Jan-18 18:02 25.451307 -79.817893 300 16607ft 326kts
06-Jan-18 18:03 25.503728 -79.897827 301 14873ft 318kts
06-Jan-18 18:04 25.555260 -79.976174 302 13169ft 311kts
06-Jan-18 18:05 25.605445 -80.052387 303 11539ft 305kts
06-Jan-18 18:06 25.653155 -80.124731 304 10710ft 267kts
06-Jan-18 18:07 25.678648 -80.199401 286 9428ft 259kts
06-Jan-18 18:08 25.698272 -80.275085 286 8184ft 254kts
06-Jan-18 18:09 25.709516 -80.351545 268 6935ft 252kts
06-Jan-18 18:10 25.705277 -80.429764 268 5895ft 256kts
06-Jan-18 18:11 25.700627 -80.508896 266 5311ft 257kts
06-Jan-18 18:12 25.693725 -80.588570 266 3924ft 262kts
06-Jan-18 18:13 25.735356 -80.622621 41 2697ft 235kts
06-Jan-18 18:14 25.771235 -80.566554 63 2056ft 211kts
06-Jan-18 18:15 25.791683 -80.509332 84 1875ft 199kts
06-Jan-18 18:16 25.794243 -80.452774 84 1880ft 182kts
06-Jan-18 18:17 25.796566 -80.398043 83 1683ft 160kts
06-Jan-18 18:18 25.798653 -80.349858 83 891ft 154kts
06-Jan-18 18:19 25.800607 -80.303287 82 68ft 147kts
06-Jan-18 18:20 25.801340 -80.283589 97 13ft 20kts
06-Jan-18 18:21 25.798290 -80.281229 192 13ft 0kts
06-Jan-18 18:22 25.798291 -80.281229 192 13ft 0kts
06-Jan-18 18:23 25.798291 -80.281229 192 13ft 0kts
06-Jan-18 18:24 25.798291 -80.281229 192 13ft 0kts
06-Jan-18 18:25 25.798291 -80.281229 192 13ft 0kts

Navigation Log

Ident Type
Flight plan parsing failed, navigation log unavailable